sensor_id;sensor_type;location;lat;lon;timestamp;pressure;altitude;pressure_sealevel;temperature;humidity
68179;BME280;54998;42.656;23.382;2023-04-19T00:01:21;94451.59;;;8.59;72.55
68179;BME280;54998;42.656;23.382;2023-04-19T00:03:47;94448.22;;;8.49;73.05
68179;BME280;54998;42.656;23.382;2023-04-19T00:06:12;94444.34;;;8.35;73.40
68179;BME280;54998;42.656;23.382;2023-04-19T00:08:40;94447.00;;;8.34;73.75
68179;BME280;54998;42.656;23.382;2023-04-19T00:11:07;94446.22;;;8.43;73.51
68179;BME280;54998;42.656;23.382;2023-04-19T00:13:32;94448.22;;;8.49;72.94
68179;BME280;54998;42.656;23.382;2023-04-19T00:15:58;94449.88;;;8.50;73.21
68179;BME280;54998;42.656;23.382;2023-04-19T00:18:23;94440.16;;;8.54;73.54
68179;BME280;54998;42.656;23.382;2023-04-19T00:20:49;94441.34;;;8.59;73.10
68179;BME280;54998;42.656;23.382;2023-04-19T00:23:15;94440.16;;;8.54;73.08
68179;BME280;54998;42.656;23.382;2023-04-19T00:25:40;94433.81;;;8.58;72.88
68179;BME280;54998;42.656;23.382;2023-04-19T00:28:06;94438.25;;;8.56;72.75
68179;BME280;54998;42.656;23.382;2023-04-19T00:30:31;94432.47;;;8.54;72.85
68179;BME280;54998;42.656;23.382;2023-04-19T00:32:56;94429.41;;;8.50;72.57
68179;BME280;54998;42.656;23.382;2023-04-19T00:35:22;94428.56;;;8.50;72.75
68179;BME280;54998;42.656;23.382;2023-04-19T00:37:47;94426.56;;;8.53;72.38
68179;BME280;54998;42.656;23.382;2023-04-19T00:40:12;94429.41;;;8.31;73.56
68179;BME280;54998;42.656;23.382;2023-04-19T00:42:38;94426.84;;;8.40;73.44
68179;BME280;54998;42.656;23.382;2023-04-19T00:45:04;94426.56;;;8.43;73.13
68179;BME280;54998;42.656;23.382;2023-04-19T00:47:29;94422.78;;;8.48;72.76
68179;BME280;54998;42.656;23.382;2023-04-19T00:49:55;94426.97;;;8.49;72.61
68179;BME280;54998;42.656;23.382;2023-04-19T00:52:21;94419.84;;;8.23;72.98
68179;BME280;54998;42.656;23.382;2023-04-19T00:54:47;94419.31;;;8.29;72.87
68179;BME280;54998;42.656;23.382;2023-04-19T00:57:14;94418.09;;;8.33;72.26
68179;BME280;54998;42.656;23.382;2023-04-19T00:59:40;94415.69;;;8.41;72.50
68179;BME280;54998;42.656;23.382;2023-04-19T01:02:05;94419.19;;;8.31;72.27
68179;BME280;54998;42.656;23.382;2023-04-19T01:04:31;94414.56;;;8.34;72.52
68179;BME280;54998;42.656;23.382;2023-04-19T01:06:57;94419.19;;;8.40;72.50
68179;BME280;54998;42.656;23.382;2023-04-19T01:09:22;94417.28;;;8.42;72.02
68179;BME280;54998;42.656;23.382;2023-04-19T01:11:48;94408.81;;;8.42;72.39
68179;BME280;54998;42.656;23.382;2023-04-19T01:14:14;94410.41;;;8.53;71.75
68179;BME280;54998;42.656;23.382;2023-04-19T01:16:39;94416.63;;;8.50;71.74
68179;BME280;54998;42.656;23.382;2023-04-19T01:19:05;94415.69;;;8.41;72.26
68179;BME280;54998;42.656;23.382;2023-04-19T01:21:30;94420.38;;;8.36;72.47
68179;BME280;54998;42.656;23.382;2023-04-19T01:23:56;94409.47;;;8.34;72.41
68179;BME280;54998;42.656;23.382;2023-04-19T01:26:22;94416.22;;;8.45;72.48
68179;BME280;54998;42.656;23.382;2023-04-19T01:28:47;94420.91;;;8.40;72.70
68179;BME280;54998;42.656;23.382;2023-04-19T01:31:12;94408.53;;;8.55;72.22
68179;BME280;54998;42.656;23.382;2023-04-19T01:33:38;94410.00;;;8.57;71.85
68179;BME280;54998;42.656;23.382;2023-04-19T01:36:03;94406.66;;;8.47;71.67
68179;BME280;54998;42.656;23.382;2023-04-19T01:38:29;94402.88;;;8.51;71.55
68179;BME280;54998;42.656;23.382;2023-04-19T01:43:30;94407.75;;;8.25;72.58
68179;BME280;54998;42.656;23.382;2023-04-19T01:45:55;94399.25;;;8.34;72.30
68179;BME280;54998;42.656;23.382;2023-04-19T01:48:21;94395.34;;;8.30;72.74
68179;BME280;54998;42.656;23.382;2023-04-19T01:50:46;94403.25;;;8.37;72.44
68179;BME280;54998;42.656;23.382;2023-04-19T01:53:11;94390.63;;;8.45;72.30
68179;BME280;54998;42.656;23.382;2023-04-19T01:55:37;94389.03;;;8.44;72.39
68179;BME280;54998;42.656;23.382;2023-04-19T01:58:02;94385.09;;;8.40;72.63
68179;BME280;54998;42.656;23.382;2023-04-19T02:00:28;94387.00;;;8.38;72.63
68179;BME280;54998;42.656;23.382;2023-04-19T02:02:53;94388.75;;;8.37;72.79
68179;BME280;54998;42.656;23.382;2023-04-19T02:05:18;94387.97;;;8.27;73.27
68179;BME280;54998;42.656;23.382;2023-04-19T02:07:44;94388.75;;;8.28;73.82
68179;BME280;54998;42.656;23.382;2023-04-19T02:10:10;94383.63;;;8.37;73.28
68179;BME280;54998;42.656;23.382;2023-04-19T02:12:39;94384.56;;;8.36;73.40
68179;BME280;54998;42.656;23.382;2023-04-19T02:15:05;94389.84;;;8.25;73.94
68179;BME280;54998;42.656;23.382;2023-04-19T02:17:30;94389.31;;;8.31;73.83
68179;BME280;54998;42.656;23.382;2023-04-19T02:19:56;94392.97;;;8.09;74.66
68179;BME280;54998;42.656;23.382;2023-04-19T02:22:21;94386.09;;;8.10;74.79
68179;BME280;54998;42.656;23.382;2023-04-19T02:24:49;94383.84;;;7.87;76.12
68179;BME280;54998;42.656;23.382;2023-04-19T02:27:14;94387.59;;;7.93;75.69
68179;BME280;54998;42.656;23.382;2023-04-19T02:29:40;94392.16;;;7.89;75.86
68179;BME280;54998;42.656;23.382;2023-04-19T02:32:05;94399.69;;;8.00;75.63
68179;BME280;54998;42.656;23.382;2023-04-19T02:34:31;94397.00;;;7.92;75.87
68179;BME280;54998;42.656;23.382;2023-04-19T02:36:57;94391.22;;;7.80;76.56
68179;BME280;54998;42.656;23.382;2023-04-19T02:39:22;94397.56;;;7.76;77.15
68179;BME280;54998;42.656;23.382;2023-04-19T02:41:48;94390.00;;;7.75;76.48
68179;BME280;54998;42.656;23.382;2023-04-19T02:44:13;94385.84;;;7.74;76.87
68179;BME280;54998;42.656;23.382;2023-04-19T02:46:39;94393.38;;;7.85;76.44
68179;BME280;54998;42.656;23.382;2023-04-19T02:49:04;94397.81;;;7.73;76.57
68179;BME280;54998;42.656;23.382;2023-04-19T02:51:30;94398.59;;;7.74;77.00
68179;BME280;54998;42.656;23.382;2023-04-19T02:53:55;94394.31;;;7.84;76.52
68179;BME280;54998;42.656;23.382;2023-04-19T02:56:21;94395.25;;;7.83;76.29
68179;BME280;54998;42.656;23.382;2023-04-19T02:58:46;94391.38;;;7.79;76.56
68179;BME280;54998;42.656;23.382;2023-04-19T03:01:11;94393.78;;;7.90;76.39
68179;BME280;54998;42.656;23.382;2023-04-19T03:03:37;94391.38;;;7.79;76.28
68179;BME280;54998;42.656;23.382;2023-04-19T03:06:02;94388.66;;;7.71;77.08
68179;BME280;54998;42.656;23.382;2023-04-19T03:08:28;94384.38;;;7.81;76.55
68179;BME280;54998;42.656;23.382;2023-04-19T03:10:53;94385.84;;;7.84;76.26
68179;BME280;54998;42.656;23.382;2023-04-19T03:13:19;94384.22;;;7.82;75.81
68179;BME280;54998;42.656;23.382;2023-04-19T03:15:45;94382.59;;;7.72;76.13
68179;BME280;54998;42.656;23.382;2023-04-19T03:18:11;94387.31;;;7.67;75.99
68179;BME280;54998;42.656;23.382;2023-04-19T03:20:36;94386.25;;;7.59;76.28
68179;BME280;54998;42.656;23.382;2023-04-19T03:23:01;94387.69;;;7.52;76.66
68179;BME280;54998;42.656;23.382;2023-04-19T03:25:27;94383.94;;;7.56;76.48
68179;BME280;54998;42.656;23.382;2023-04-19T03:27:53;94386.91;;;7.61;76.88
68179;BME280;54998;42.656;23.382;2023-04-19T03:30:18;94382.75;;;7.51;76.95
68179;BME280;54998;42.656;23.382;2023-04-19T03:32:45;94379.34;;;7.50;77.00
68179;BME280;54998;42.656;23.382;2023-04-19T03:35:11;94381.38;;;7.47;77.01
68179;BME280;54998;42.656;23.382;2023-04-19T03:37:36;94386.22;;;7.40;77.34
68179;BME280;54998;42.656;23.382;2023-04-19T03:40:02;94385.25;;;7.31;77.84
68179;BME280;54998;42.656;23.382;2023-04-19T03:42:27;94382.16;;;7.28;77.93
68179;BME280;54998;42.656;23.382;2023-04-19T03:44:53;94377.84;;;7.28;77.61
68179;BME280;54998;42.656;23.382;2023-04-19T03:47:18;94382.69;;;7.22;78.10
68179;BME280;54998;42.656;23.382;2023-04-19T03:49:44;94386.19;;;7.20;78.03
68179;BME280;54998;42.656;23.382;2023-04-19T03:52:09;94387.34;;;7.07;78.75
68179;BME280;54998;42.656;23.382;2023-04-19T03:54:34;94383.19;;;7.06;78.51
68179;BME280;54998;42.656;23.382;2023-04-19T03:57:00;94382.47;;;6.94;79.02
68179;BME280;54998;42.656;23.382;2023-04-19T03:59:25;94383.91;;;6.87;79.02
68179;BME280;54998;42.656;23.382;2023-04-19T04:01:51;94392.34;;;6.77;79.66
68179;BME280;54998;42.656;23.382;2023-04-19T04:04:16;94391.84;;;6.84;79.81
68179;BME280;54998;42.656;23.382;2023-04-19T04:06:42;94395.19;;;6.84;79.96
68179;BME280;54998;42.656;23.382;2023-04-19T04:09:07;94393.31;;;6.86;79.55
68179;BME280;54998;42.656;23.382;2023-04-19T04:11:32;94394.13;;;6.87;79.88
68179;BME280;54998;42.656;23.382;2023-04-19T04:16:27;94398.31;;;6.88;79.62
68179;BME280;54998;42.656;23.382;2023-04-19T04:18:52;94393.31;;;6.86;79.49
68179;BME280;54998;42.656;23.382;2023-04-19T04:21:18;94406.53;;;7.01;79.26
68179;BME280;54998;42.656;23.382;2023-04-19T04:23:43;94389.53;;;7.11;78.54
68179;BME280;54998;42.656;23.382;2023-04-19T04:26:09;94395.19;;;7.25;78.10
68179;BME280;54998;42.656;23.382;2023-04-19T04:28:35;94402.56;;;7.28;77.85
68179;BME280;54998;42.656;23.382;2023-04-19T04:31:00;94401.22;;;7.24;77.39
68179;BME280;54998;42.656;23.382;2023-04-19T04:33:27;94409.84;;;7.32;77.69
68179;BME280;54998;42.656;23.382;2023-04-19T04:35:53;94402.47;;;7.39;77.43
68179;BME280;54998;42.656;23.382;2023-04-19T04:38:20;94401.66;;;7.38;76.93
68179;BME280;54998;42.656;23.382;2023-04-19T04:40:52;94401.09;;;7.35;77.31
68179;BME280;54998;42.656;23.382;2023-04-19T04:43:22;94396.91;;;7.14;78.03
68179;BME280;54998;42.656;23.382;2023-04-19T04:45:47;94396.28;;;7.32;77.45
68179;BME280;54998;42.656;23.382;2023-04-19T04:48:13;94405.41;;;7.34;77.46
68179;BME280;54998;42.656;23.382;2023-04-19T04:50:38;94408.91;;;7.43;77.55
68179;BME280;54998;42.656;23.382;2023-04-19T04:53:04;94403.97;;;7.51;76.76
68179;BME280;54998;42.656;23.382;2023-04-19T04:55:29;94402.25;;;7.61;76.66
68179;BME280;54998;42.656;23.382;2023-04-19T04:57:55;94405.06;;;7.88;75.90
68179;BME280;54998;42.656;23.382;2023-04-19T05:00:24;94404.81;;;7.81;75.09
68179;BME280;54998;42.656;23.382;2023-04-19T05:02:49;94406.16;;;7.66;75.61
68179;BME280;54998;42.656;23.382;2023-04-19T05:05:14;94408.16;;;7.72;75.86
68179;BME280;54998;42.656;23.382;2023-04-19T05:07:41;94394.19;;;7.86;75.49
68179;BME280;54998;42.656;23.382;2023-04-19T05:10:07;94412.31;;;8.12;74.23
68179;BME280;54998;42.656;23.382;2023-04-19T05:12:39;94399.94;;;7.97;74.26
68179;BME280;54998;42.656;23.382;2023-04-19T05:15:06;94406.94;;;8.15;73.86
68179;BME280;54998;42.656;23.382;2023-04-19T05:17:39;94407.47;;;8.09;74.13
68179;BME280;54998;42.656;23.382;2023-04-19T05:20:10;94408.97;;;8.01;73.92
68179;BME280;54998;42.656;23.382;2023-04-19T05:22:36;94410.97;;;8.17;73.88
68179;BME280;54998;42.656;23.382;2023-04-19T05:25:01;94411.38;;;8.13;73.84
68179;BME280;54998;42.656;23.382;2023-04-19T05:27:27;94414.59;;;8.15;73.74
68179;BME280;54998;42.656;23.382;2023-04-19T05:29:52;94416.47;;;8.13;73.68
68179;BME280;54998;42.656;23.382;2023-04-19T05:32:17;94407.22;;;8.12;73.37
68179;BME280;54998;42.656;23.382;2023-04-19T05:34:43;94415.78;;;8.40;72.64
68179;BME280;54998;42.656;23.382;2023-04-19T05:37:08;94418.75;;;8.45;72.55
68179;BME280;54998;42.656;23.382;2023-04-19T05:39:34;94422.53;;;8.21;73.28
68179;BME280;54998;42.656;23.382;2023-04-19T05:41:59;94405.31;;;8.53;72.58
68179;BME280;54998;42.656;23.382;2023-04-19T05:44:25;94419.72;;;8.44;72.47
68179;BME280;54998;42.656;23.382;2023-04-19T05:46:51;94417.13;;;8.63;72.13
68179;BME280;54998;42.656;23.382;2023-04-19T05:49:16;94419.84;;;8.52;72.25
68179;BME280;54998;42.656;23.382;2023-04-19T05:51:41;94422.53;;;8.51;72.70
68179;BME280;54998;42.656;23.382;2023-04-19T05:54:07;94414.97;;;8.59;72.02
68179;BME280;54998;42.656;23.382;2023-04-19T05:56:37;94420.91;;;8.59;72.01
68179;BME280;54998;42.656;23.382;2023-04-19T05:59:02;94414.66;;;8.72;71.46
68179;BME280;54998;42.656;23.382;2023-04-19T06:01:27;94420.97;;;8.77;71.26
68179;BME280;54998;42.656;23.382;2023-04-19T06:03:53;94428.63;;;8.87;71.00
68179;BME280;54998;42.656;23.382;2023-04-19T06:06:22;94420.47;;;9.01;70.03
68179;BME280;54998;42.656;23.382;2023-04-19T06:08:48;94424.50;;;9.04;70.26
68179;BME280;54998;42.656;23.382;2023-04-19T06:11:13;94414.78;;;9.17;69.66
68179;BME280;54998;42.656;23.382;2023-04-19T06:13:39;94409.19;;;8.94;70.53
68179;BME280;54998;42.656;23.382;2023-04-19T06:16:05;94428.50;;;9.16;70.13
68179;BME280;54998;42.656;23.382;2023-04-19T06:18:30;94430.41;;;9.14;69.91
68179;BME280;54998;42.656;23.382;2023-04-19T06:20:56;94429.09;;;9.56;68.78
68179;BME280;54998;42.656;23.382;2023-04-19T06:23:21;94425.28;;;9.42;67.97
68179;BME280;54998;42.656;23.382;2023-04-19T06:25:47;94421.81;;;9.33;68.91
68179;BME280;54998;42.656;23.382;2023-04-19T06:28:13;94431.63;;;9.38;68.66
68179;BME280;54998;42.656;23.382;2023-04-19T06:30:38;94428.97;;;9.57;68.38
68179;BME280;54998;42.656;23.382;2023-04-19T06:33:04;94429.59;;;9.87;67.30
68179;BME280;54998;42.656;23.382;2023-04-19T06:35:30;94432.72;;;9.63;67.38
68179;BME280;54998;42.656;23.382;2023-04-19T06:37:55;94424.47;;;9.14;69.42
68179;BME280;54998;42.656;23.382;2023-04-19T06:40:21;94420.97;;;9.60;68.29
68179;BME280;54998;42.656;23.382;2023-04-19T06:45:23;94434.56;;;10.24;65.55
68179;BME280;54998;42.656;23.382;2023-04-19T06:47:49;94429.22;;;10.18;66.33
68179;BME280;54998;42.656;23.382;2023-04-19T06:50:14;94430.41;;;10.94;64.55
68179;BME280;54998;42.656;23.382;2023-04-19T06:52:39;94428.19;;;11.41;61.79
68179;BME280;54998;42.656;23.382;2023-04-19T06:55:05;94432.91;;;10.59;63.64
68179;BME280;54998;42.656;23.382;2023-04-19T06:57:31;94443.13;;;10.77;63.95
68179;BME280;54998;42.656;23.382;2023-04-19T06:59:57;94440.81;;;11.26;61.50
68179;BME280;54998;42.656;23.382;2023-04-19T07:02:23;94440.53;;;11.03;62.17
68179;BME280;54998;42.656;23.382;2023-04-19T07:04:48;94437.91;;;11.21;61.68
68179;BME280;54998;42.656;23.382;2023-04-19T07:07:13;94434.75;;;11.36;61.17
68179;BME280;54998;42.656;23.382;2023-04-19T07:09:39;94440.38;;;11.90;60.29
68179;BME280;54998;42.656;23.382;2023-04-19T07:12:05;94447.84;;;12.34;57.83
68179;BME280;54998;42.656;23.382;2023-04-19T07:14:30;94429.81;;;12.50;57.12
68179;BME280;54998;42.656;23.382;2023-04-19T07:16:56;94430.59;;;12.51;57.50
68179;BME280;54998;42.656;23.382;2023-04-19T07:19:21;94428.38;;;12.23;58.27
68179;BME280;54998;42.656;23.382;2023-04-19T07:21:47;94439.78;;;12.37;58.85
68179;BME280;54998;42.656;23.382;2023-04-19T07:24:12;94432.97;;;12.85;56.97
68179;BME280;54998;42.656;23.382;2023-04-19T07:26:38;94431.28;;;13.17;56.04
68179;BME280;54998;42.656;23.382;2023-04-19T07:29:03;94440.03;;;13.08;55.75
68179;BME280;54998;42.656;23.382;2023-04-19T07:31:29;94438.16;;;13.41;53.91
68179;BME280;54998;42.656;23.382;2023-04-19T07:33:54;94444.81;;;13.19;55.03
68179;BME280;54998;42.656;23.382;2023-04-19T07:36:20;94443.78;;;12.07;58.40
68179;BME280;54998;42.656;23.382;2023-04-19T07:38:45;94443.00;;;12.23;57.78
68179;BME280;54998;42.656;23.382;2023-04-19T07:41:11;94434.97;;;12.50;56.94
68179;BME280;54998;42.656;23.382;2023-04-19T07:43:36;94436.59;;;12.51;57.14
68179;BME280;54998;42.656;23.382;2023-04-19T07:46:08;94437.69;;;12.73;56.09
68179;BME280;54998;42.656;23.382;2023-04-19T07:48:34;94439.47;;;12.73;56.49
68179;BME280;54998;42.656;23.382;2023-04-19T07:51:13;94442.03;;;12.73;56.29
68179;BME280;54998;42.656;23.382;2023-04-19T07:53:39;94441.72;;;12.10;57.34
68179;BME280;54998;42.656;23.382;2023-04-19T07:56:06;94427.09;;;12.36;58.09
68179;BME280;54998;42.656;23.382;2023-04-19T07:58:32;94441.03;;;12.82;55.89
68179;BME280;54998;42.656;23.382;2023-04-19T08:00:58;94439.47;;;12.48;56.18
68179;BME280;54998;42.656;23.382;2023-04-19T08:03:23;94437.53;;;12.26;57.66
68179;BME280;54998;42.656;23.382;2023-04-19T08:05:49;94434.97;;;12.50;57.06
68179;BME280;54998;42.656;23.382;2023-04-19T08:08:14;94442.25;;;13.67;54.49
68179;BME280;54998;42.656;23.382;2023-04-19T08:10:40;94434.19;;;13.14;54.81
68179;BME280;54998;42.656;23.382;2023-04-19T08:13:05;94439.31;;;14.01;53.38
68179;BME280;54998;42.656;23.382;2023-04-19T08:15:32;94438.91;;;13.58;53.89
68179;BME280;54998;42.656;23.382;2023-04-19T08:17:57;94440.03;;;13.55;53.47
68179;BME280;54998;42.656;23.382;2023-04-19T08:20:23;94438.47;;;12.66;56.81
68179;BME280;54998;42.656;23.382;2023-04-19T08:22:48;94429.41;;;13.03;55.48
68179;BME280;54998;42.656;23.382;2023-04-19T08:25:14;94445.75;;;13.34;54.74
68179;BME280;54998;42.656;23.382;2023-04-19T08:27:40;94444.47;;;13.39;54.47
68179;BME280;54998;42.656;23.382;2023-04-19T08:30:06;94443.63;;;12.74;55.83
68179;BME280;54998;42.656;23.382;2023-04-19T08:32:32;94444.72;;;11.89;57.44
68179;BME280;54998;42.656;23.382;2023-04-19T08:34:57;94440.00;;;11.68;58.85
68179;BME280;54998;42.656;23.382;2023-04-19T08:37:25;94448.38;;;11.28;60.15
68179;BME280;54998;42.656;23.382;2023-04-19T08:39:50;94439.00;;;11.61;59.93
68179;BME280;54998;42.656;23.382;2023-04-19T08:42:16;94426.38;;;11.76;58.85
68179;BME280;54998;42.656;23.382;2023-04-19T08:44:41;94433.66;;;12.13;58.18
68179;BME280;54998;42.656;23.382;2023-04-19T08:47:10;94434.16;;;12.09;57.42
68179;BME280;54998;42.656;23.382;2023-04-19T08:49:35;94433.22;;;11.59;59.21
68179;BME280;54998;42.656;23.382;2023-04-19T08:52:01;94426.91;;;12.04;58.14
68179;BME280;54998;42.656;23.382;2023-04-19T08:54:30;94424.72;;;11.59;59.68
68179;BME280;54998;42.656;23.382;2023-04-19T08:56:58;94415.50;;;12.15;57.55
68179;BME280;54998;42.656;23.382;2023-04-19T08:59:24;94418.66;;;12.83;55.78
68179;BME280;54998;42.656;23.382;2023-04-19T09:01:50;94426.91;;;11.96;57.97
68179;BME280;54998;42.656;23.382;2023-04-19T09:04:15;94420.81;;;12.54;56.51
68179;BME280;54998;42.656;23.382;2023-04-19T09:06:40;94417.56;;;12.69;56.43
68179;BME280;54998;42.656;23.382;2023-04-19T09:09:14;94416.88;;;13.47;53.57
68179;BME280;54998;42.656;23.382;2023-04-19T09:11:40;94416.88;;;13.79;52.39
68179;BME280;54998;42.656;23.382;2023-04-19T09:14:10;94410.75;;;13.80;52.33
68179;BME280;54998;42.656;23.382;2023-04-19T09:16:35;94415.50;;;13.60;52.73
68179;BME280;54998;42.656;23.382;2023-04-19T09:19:05;94407.84;;;13.51;52.80
68179;BME280;54998;42.656;23.382;2023-04-19T09:21:31;94406.44;;;12.68;54.66
68179;BME280;54998;42.656;23.382;2023-04-19T09:23:57;94406.94;;;12.72;54.65
68179;BME280;54998;42.656;23.382;2023-04-19T09:26:23;94397.94;;;13.24;53.11
68179;BME280;54998;42.656;23.382;2023-04-19T09:28:59;94410.44;;;13.74;52.07
68179;BME280;54998;42.656;23.382;2023-04-19T09:31:27;94412.22;;;13.74;52.49
68179;BME280;54998;42.656;23.382;2023-04-19T09:33:53;94413.16;;;13.02;53.14
68179;BME280;54998;42.656;23.382;2023-04-19T09:36:36;94406.47;;;13.24;52.43
68179;BME280;54998;42.656;23.382;2023-04-19T09:39:01;94411.19;;;13.60;51.65
68179;BME280;54998;42.656;23.382;2023-04-19T09:41:27;94409.75;;;13.10;53.67
68179;BME280;54998;42.656;23.382;2023-04-19T09:43:52;94402.34;;;13.54;52.48
68179;BME280;54998;42.656;23.382;2023-04-19T09:46:35;94392.88;;;15.36;47.51
68179;BME280;54998;42.656;23.382;2023-04-19T09:51:42;94383.22;;;16.68;44.86
68179;BME280;54998;42.656;23.382;2023-04-19T09:54:09;94389.13;;;19.39;39.56
68179;BME280;54998;42.656;23.382;2023-04-19T09:56:36;94389.59;;;17.90;40.86
68179;BME280;54998;42.656;23.382;2023-04-19T09:59:02;94377.09;;;17.65;41.51
68179;BME280;54998;42.656;23.382;2023-04-19T10:01:34;94372.84;;;18.19;40.23
68179;BME280;54998;42.656;23.382;2023-04-19T10:04:02;94370.53;;;20.44;36.13
68179;BME280;54998;42.656;23.382;2023-04-19T10:06:28;94370.25;;;18.25;39.59
68179;BME280;54998;42.656;23.382;2023-04-19T10:08:53;94356.69;;;19.87;37.66
68179;BME280;54998;42.656;23.382;2023-04-19T10:11:22;94364.22;;;21.58;33.82
68179;BME280;54998;42.656;23.382;2023-04-19T10:13:53;94369.34;;;20.15;35.84
68179;BME280;54998;42.656;23.382;2023-04-19T10:16:21;94365.47;;;20.24;35.26
68179;BME280;54998;42.656;23.382;2023-04-19T10:18:48;94356.00;;;17.81;39.74
68179;BME280;54998;42.656;23.382;2023-04-19T10:21:14;94361.88;;;18.83;37.92
68179;BME280;54998;42.656;23.382;2023-04-19T10:23:40;94357.81;;;17.26;40.39
68179;BME280;54998;42.656;23.382;2023-04-19T10:26:05;94356.28;;;18.46;39.10
68179;BME280;54998;42.656;23.382;2023-04-19T10:28:34;94353.69;;;18.40;38.64
68179;BME280;54998;42.656;23.382;2023-04-19T10:31:01;94355.22;;;19.07;38.40
68179;BME280;54998;42.656;23.382;2023-04-19T10:33:29;94339.88;;;18.73;38.39
68179;BME280;54998;42.656;23.382;2023-04-19T10:35:57;94349.75;;;19.22;37.14
68179;BME280;54998;42.656;23.382;2023-04-19T10:41:04;94346.50;;;17.34;42.12
68179;BME280;54998;42.656;23.382;2023-04-19T10:43:37;94349.72;;;19.81;36.91
68179;BME280;54998;42.656;23.382;2023-04-19T10:46:06;94342.16;;;19.66;36.61
68179;BME280;54998;42.656;23.382;2023-04-19T10:48:34;94332.88;;;18.80;37.97
68179;BME280;54998;42.656;23.382;2023-04-19T10:51:15;94324.84;;;18.95;38.30
68179;BME280;54998;42.656;23.382;2023-04-19T10:53:57;94341.25;;;18.82;38.23
68179;BME280;54998;42.656;23.382;2023-04-19T11:07:07;94328.81;;;18.97;37.51
68179;BME280;54998;42.656;23.382;2023-04-19T11:09:34;94326.88;;;18.73;37.56
68179;BME280;54998;42.656;23.382;2023-04-19T11:12:02;94317.53;;;18.32;37.71
68179;BME280;54998;42.656;23.382;2023-04-19T11:14:36;94316.19;;;16.93;40.35
68179;BME280;54998;42.656;23.382;2023-04-19T11:17:19;94325.28;;;18.52;38.27
68179;BME280;54998;42.656;23.382;2023-04-19T11:19:55;94312.66;;;18.82;38.07
68179;BME280;54998;42.656;23.382;2023-04-19T11:22:25;94302.88;;;19.81;36.43
68179;BME280;54998;42.656;23.382;2023-04-19T11:24:53;94307.22;;;20.12;34.85
68179;BME280;54998;42.656;23.382;2023-04-19T11:27:20;94324.78;;;19.08;36.05
68179;BME280;54998;42.656;23.382;2023-04-19T11:29:45;94306.97;;;20.20;34.17
68179;BME280;54998;42.656;23.382;2023-04-19T11:32:10;94298.97;;;19.58;34.50
68179;BME280;54998;42.656;23.382;2023-04-19T11:34:37;94311.31;;;18.53;36.87
68179;BME280;54998;42.656;23.382;2023-04-19T11:37:03;94311.25;;;19.44;34.73
68179;BME280;54998;42.656;23.382;2023-04-19T11:39:28;94309.94;;;18.03;37.88
68179;BME280;54998;42.656;23.382;2023-04-19T11:41:54;94308.06;;;18.84;36.03
68179;BME280;54998;42.656;23.382;2023-04-19T11:44:19;94301.63;;;19.45;34.22
68179;BME280;54998;42.656;23.382;2023-04-19T11:47:05;94307.63;;;19.00;34.27
68179;BME280;54998;42.656;23.382;2023-04-19T11:49:32;94305.13;;;18.47;34.66
68179;BME280;54998;42.656;23.382;2023-04-19T11:52:04;94309.09;;;18.70;34.86
68179;BME280;54998;42.656;23.382;2023-04-19T11:54:30;94300.72;;;19.64;33.32
68179;BME280;54998;42.656;23.382;2023-04-19T11:57:03;94292.16;;;20.64;32.12
68179;BME280;54998;42.656;23.382;2023-04-19T11:59:30;94288.63;;;20.77;31.38
68179;BME280;54998;42.656;23.382;2023-04-19T12:02:10;94297.59;;;20.19;32.05
68179;BME280;54998;42.656;23.382;2023-04-19T12:04:36;94293.94;;;17.93;34.03
68179;BME280;54998;42.656;23.382;2023-04-19T12:07:03;94301.78;;;17.32;36.17
68179;BME280;54998;42.656;23.382;2023-04-19T12:09:32;94292.81;;;17.28;37.03
68179;BME280;54998;42.656;23.382;2023-04-19T12:11:57;94290.63;;;19.43;33.66
68179;BME280;54998;42.656;23.382;2023-04-19T12:14:23;94289.78;;;19.49;33.78
68179;BME280;54998;42.656;23.382;2023-04-19T12:17:10;94285.25;;;21.74;30.29
68179;BME280;54998;42.656;23.382;2023-04-19T12:19:43;94290.44;;;20.58;32.20
68179;BME280;54998;42.656;23.382;2023-04-19T12:22:14;94287.47;;;18.89;36.72
68179;BME280;54998;42.656;23.382;2023-04-19T12:24:40;94295.63;;;17.33;41.66
68179;BME280;54998;42.656;23.382;2023-04-19T12:27:07;94284.91;;;16.94;42.43
68179;BME280;54998;42.656;23.382;2023-04-19T12:29:32;94291.69;;;16.60;43.32
68179;BME280;54998;42.656;23.382;2023-04-19T12:31:58;94282.22;;;16.11;43.75
68179;BME280;54998;42.656;23.382;2023-04-19T12:34:24;94283.22;;;15.89;45.43
68179;BME280;54998;42.656;23.382;2023-04-19T12:36:50;94287.44;;;15.53;46.51
68179;BME280;54998;42.656;23.382;2023-04-19T12:39:15;94285.78;;;15.46;46.74
68179;BME280;54998;42.656;23.382;2023-04-19T12:41:41;94279.38;;;15.63;45.88
68179;BME280;54998;42.656;23.382;2023-04-19T12:44:07;94265.97;;;15.53;45.68
68179;BME280;54998;42.656;23.382;2023-04-19T12:46:32;94279.09;;;15.73;44.86
68179;BME280;54998;42.656;23.382;2023-04-19T12:48:58;94279.69;;;15.32;45.78
68179;BME280;54998;42.656;23.382;2023-04-19T12:51:23;94281.69;;;15.00;46.67
68179;BME280;54998;42.656;23.382;2023-04-19T12:53:49;94285.94;;;14.56;46.66
68179;BME280;54998;42.656;23.382;2023-04-19T12:56:16;94290.38;;;14.63;46.56
68179;BME280;54998;42.656;23.382;2023-04-19T12:58:41;94278.34;;;14.40;46.98
68179;BME280;54998;42.656;23.382;2023-04-19T13:01:07;94273.38;;;14.68;46.28
68179;BME280;54998;42.656;23.382;2023-04-19T13:03:32;94275.38;;;14.28;46.63
68179;BME280;54998;42.656;23.382;2023-04-19T13:06:01;94283.72;;;14.15;47.44
68179;BME280;54998;42.656;23.382;2023-04-19T13:08:26;94295.22;;;13.75;48.76
68179;BME280;54998;42.656;23.382;2023-04-19T13:10:52;94294.53;;;13.58;50.28
68179;BME280;54998;42.656;23.382;2023-04-19T13:13:17;94303.78;;;12.82;55.06
68179;BME280;54998;42.656;23.382;2023-04-19T13:15:42;94317.00;;;12.70;57.25